Česky Dansk Deutsch English Español Suomi Français Magyar Italiano Nederlands norsk Polski Português svenska Türkçe

 

Het Weer

Guriat (Saudi-Arabië)

04:00, 31 juli 2016 (GMT)

NWNNE
WE
SWSSE
Home            
Guriat H-5'Safawi Queen Alia Airport Amman Airport Turaif Mafraq H-4'Irwaished Irbid Ma'An Jerusalem Airport Ben-Gurion International Airport Damascus Int. Airport Beer-Sheva Galilee / Pina Tel Aviv / Sde-Dov Airport Sde-Haifa Haifa Ovda Aqaba Airport Eilat Taba Beyrouth Aeroport Al-Jouf El Arish

Om een weerknop op uw website of weblog te plaatsen, copieer onderstaande code en plak die in uw pagina. In het eerste vakje staat HTML-code, in het tweede vakje UBB-code.


Add to Google

Details

Wind speed:3 bf, 8 kn, 4.1 m/s, 9.2 miles/h, 14.8 km/h
Wind direction:W, 280°
Visibility:Greater than 10000 m, 10 km, 32800 ft, 6.2 miles
Clouds:CAVOC
Temperature:25°C, 77°F
Gefühlte Temperatur:26°C, 79°F
Dew-point:14°C, 57°F
Atmospheric pressure:1007 hPa, 755.3 mmHg, 29.74 inHg, 0.994 atm
Relative humidity:50.5 %
METAR:OEGT 310400Z 28008KT CAVOK 25/14 Q1007 NOSIG

Snelkoppelingen

Actuele weersinformatie van de hele wereld. Voeg locaties toe met het plus (+) symbool. Deze snelkoppelingen kunnen worden toegevoegd aan Google.

Lid van de Technetium groep

website free tracking
StatCounter NetStat W3C Validator

17-12-2017 04:48:34
astro.technetium.be money.technetium.be phote.technetium.be tafeltennistafel.technetium.be www.ligfiets.net